createdAt,value
2022-08-03T00:01:01.621Z,19.70
2022-08-03T00:03:28.536Z,19.70
2022-08-03T00:06:02.658Z,19.70
2022-08-03T00:08:40.145Z,19.70
2022-08-03T00:11:07.437Z,19.70
2022-08-03T00:13:49.876Z,19.70
2022-08-03T00:16:16.824Z,19.60
2022-08-03T00:18:43.827Z,19.60
2022-08-03T00:21:10.788Z,19.60
2022-08-03T00:23:51.159Z,19.60
2022-08-03T00:29:09.599Z,19.60
2022-08-03T00:34:16.886Z,19.60
2022-08-03T00:36:54.134Z,19.50
2022-08-03T00:39:41.092Z,19.50
2022-08-03T00:42:10.937Z,19.40
2022-08-03T00:44:55.724Z,19.40
2022-08-03T00:47:22.755Z,19.40
2022-08-03T00:49:50.513Z,19.40
2022-08-03T00:52:17.539Z,19.40
2022-08-03T00:54:47.072Z,19.40
2022-08-03T00:57:13.892Z,19.40
2022-08-03T00:59:40.860Z,19.30
2022-08-03T01:02:08.839Z,19.30
2022-08-03T01:04:35.729Z,19.30
2022-08-03T01:07:25.524Z,19.20
2022-08-03T01:10:11.157Z,19.20
2022-08-03T01:13:59.203Z,19.20
2022-08-03T01:16:37.048Z,19.20
2022-08-03T01:22:56.363Z,19.20
2022-08-03T01:25:44.530Z,19.20
2022-08-03T01:28:39.425Z,19.20
2022-08-03T01:31:09.648Z,19.10
2022-08-03T01:33:53.290Z,19.10
2022-08-03T01:36:40.741Z,19.10
2022-08-03T01:39:21.789Z,19.00
2022-08-03T01:41:53.446Z,19.00
2022-08-03T01:44:31.348Z,19.00
2022-08-03T01:47:00.545Z,19.00
2022-08-03T01:54:55.563Z,19.00
2022-08-03T01:58:04.794Z,19.00
2022-08-03T02:00:41.484Z,19.00
2022-08-03T02:03:15.810Z,18.90
2022-08-03T02:06:17.942Z,18.90
2022-08-03T02:09:14.672Z,18.90
2022-08-03T02:11:55.398Z,18.90
2022-08-03T02:14:31.895Z,18.90
2022-08-03T02:16:59.350Z,18.80
2022-08-03T02:19:38.149Z,18.80
2022-08-03T02:22:18.311Z,18.80
2022-08-03T02:24:53.625Z,18.80
2022-08-03T02:27:26.940Z,18.80
2022-08-03T02:32:42.538Z,18.80
2022-08-03T02:35:26.818Z,18.80
2022-08-03T02:40:51.215Z,18.70
2022-08-03T02:43:21.502Z,18.70
2022-08-03T02:45:54.729Z,18.70
2022-08-03T02:51:20.561Z,18.60
2022-08-03T02:53:54.567Z,18.60
2022-08-03T02:56:28.580Z,18.60
2022-08-03T02:58:59.638Z,18.60
2022-08-03T03:01:31.000Z,18.60
2022-08-03T03:04:01.758Z,18.60
2022-08-03T03:06:29.229Z,18.50
2022-08-03T03:09:10.139Z,18.50
2022-08-03T03:11:44.819Z,18.50
2022-08-03T03:14:12.400Z,18.50
2022-08-03T03:16:45.129Z,18.50
2022-08-03T03:22:11.601Z,18.50
2022-08-03T03:24:42.728Z,18.40
2022-08-03T03:27:22.613Z,18.50
2022-08-03T03:30:05.805Z,18.40
2022-08-03T03:32:41.965Z,18.40
2022-08-03T03:35:09.783Z,18.40
2022-08-03T03:37:36.606Z,18.40
2022-08-03T03:40:03.767Z,18.40
2022-08-03T03:42:30.826Z,18.40
2022-08-03T03:44:57.783Z,18.40
2022-08-03T03:47:32.427Z,18.40
2022-08-03T03:49:59.838Z,18.30
2022-08-03T03:52:26.824Z,18.30
2022-08-03T03:54:56.379Z,18.30
2022-08-03T03:57:27.677Z,18.30
2022-08-03T04:00:10.805Z,18.30
2022-08-03T04:02:47.247Z,18.30
2022-08-03T04:05:15.230Z,18.30
2022-08-03T04:08:02.051Z,18.30
2022-08-03T04:10:31.932Z,18.30
2022-08-03T04:13:00.994Z,18.30
2022-08-03T04:15:41.254Z,18.30
2022-08-03T04:18:24.640Z,18.30
2022-08-03T04:20:53.195Z,18.30
2022-08-03T04:23:24.489Z,18.30
2022-08-03T04:26:08.385Z,18.30
2022-08-03T04:28:41.638Z,18.30
2022-08-03T04:31:15.839Z,18.30
2022-08-03T04:36:32.962Z,18.30
2022-08-03T04:39:22.462Z,18.30
2022-08-03T04:42:14.987Z,18.30
2022-08-03T04:47:33.735Z,18.40
2022-08-03T04:50:09.158Z,18.40
2022-08-03T04:52:48.396Z,18.40
2022-08-03T04:55:29.004Z,18.40
2022-08-03T04:58:16.186Z,18.40
2022-08-03T05:00:43.401Z,18.40
2022-08-03T05:06:17.088Z,18.40
2022-08-03T05:09:04.918Z,18.40
2022-08-03T05:11:34.423Z,18.40
2022-08-03T05:14:02.525Z,18.40
2022-08-03T05:16:41.683Z,18.40
2022-08-03T05:19:08.983Z,18.40
2022-08-03T05:21:52.222Z,18.40
2022-08-03T05:24:25.911Z,18.40
2022-08-03T05:26:52.779Z,18.40
2022-08-03T05:29:19.857Z,18.40
2022-08-03T05:31:56.322Z,18.50
2022-08-03T05:34:23.428Z,18.50
2022-08-03T05:36:50.446Z,18.50
2022-08-03T05:39:17.152Z,18.60
2022-08-03T05:41:46.974Z,18.60
2022-08-03T05:44:17.267Z,18.70
2022-08-03T05:46:44.506Z,18.80
2022-08-03T05:49:11.426Z,18.80
2022-08-03T05:51:38.434Z,18.90
2022-08-03T05:54:05.507Z,19.00
2022-08-03T05:56:33.936Z,19.00
2022-08-03T05:59:16.515Z,19.10
2022-08-03T06:01:52.038Z,19.20
2022-08-03T06:04:20.607Z,19.20
2022-08-03T06:06:54.234Z,19.40
2022-08-03T06:10:35.550Z,19.40
2022-08-03T06:14:53.407Z,19.60
2022-08-03T06:20:27.461Z,19.70
2022-08-03T06:23:00.342Z,19.80
2022-08-03T06:25:47.096Z,19.90
2022-08-03T06:31:23.551Z,20.10
2022-08-03T06:34:32.099Z,20.10
2022-08-03T06:37:02.566Z,20.20
2022-08-03T06:39:29.360Z,20.50
2022-08-03T06:42:11.927Z,20.70
2022-08-03T06:44:39.688Z,20.80
2022-08-03T06:47:06.792Z,21.00
2022-08-03T06:50:16.539Z,21.10
2022-08-03T06:52:38.072Z,21.60
2022-08-03T06:55:09.425Z,22.10
2022-08-03T06:58:00.032Z,22.00
2022-08-03T07:06:17.337Z,21.70
2022-08-03T07:14:24.121Z,21.60
2022-08-03T07:16:54.575Z,21.60
2022-08-03T07:19:33.718Z,21.60
2022-08-03T07:22:04.383Z,21.70
2022-08-03T07:24:42.634Z,21.80
2022-08-03T07:27:12.982Z,21.80
2022-08-03T07:29:39.674Z,21.80
2022-08-03T07:32:06.673Z,21.90
2022-08-03T07:34:37.666Z,22.00
2022-08-03T07:37:05.015Z,22.20
2022-08-03T07:39:36.516Z,22.20
2022-08-03T07:42:03.459Z,22.30
2022-08-03T07:44:36.909Z,22.40
2022-08-03T07:47:23.577Z,22.40
2022-08-03T07:49:55.629Z,22.40
2022-08-03T07:52:34.095Z,22.50
2022-08-03T07:55:32.108Z,22.50
2022-08-03T07:58:11.083Z,22.60
2022-08-03T08:00:47.660Z,22.90
2022-08-03T08:03:14.554Z,22.90
2022-08-03T08:05:44.546Z,23.00
2022-08-03T08:11:29.962Z,23.30
2022-08-03T08:14:18.578Z,23.50
2022-08-03T08:19:51.232Z,23.60
2022-08-03T08:22:24.793Z,23.60
2022-08-03T08:25:11.761Z,23.70
2022-08-03T08:28:22.170Z,23.70
2022-08-03T08:30:55.170Z,23.80
2022-08-03T08:33:47.862Z,23.70
2022-08-03T08:36:34.187Z,23.70
2022-08-03T08:39:05.148Z,23.80
2022-08-03T08:41:34.974Z,24.00
2022-08-03T08:44:05.804Z,24.20
2022-08-03T08:46:33.412Z,24.50
2022-08-03T08:49:09.351Z,24.50
2022-08-03T08:51:59.774Z,24.50
2022-08-03T08:54:42.233Z,24.50
2022-08-03T08:57:26.779Z,24.40
2022-08-03T08:59:57.529Z,24.40
2022-08-03T09:02:25.205Z,24.50
2022-08-03T09:04:53.181Z,24.60
2022-08-03T09:07:32.240Z,24.60
2022-08-03T09:10:12.049Z,24.80
2022-08-03T09:12:47.391Z,24.80
2022-08-03T09:15:22.096Z,24.90
2022-08-03T09:17:51.210Z,25.00
2022-08-03T09:20:29.798Z,25.10
2022-08-03T09:23:26.306Z,25.20
2022-08-03T09:26:40.607Z,25.30
2022-08-03T09:29:14.906Z,25.50
2022-08-03T09:31:45.548Z,25.60
2022-08-03T09:34:20.246Z,25.80
2022-08-03T09:36:59.085Z,25.80
2022-08-03T09:39:42.034Z,25.70
2022-08-03T09:42:15.534Z,25.80
2022-08-03T09:45:35.373Z,25.80
2022-08-03T09:48:26.242Z,26.00
2022-08-03T09:51:13.397Z,26.20
2022-08-03T09:56:57.644Z,26.20
2022-08-03T13:18:32.845Z,29.80
2022-08-03T13:21:00.558Z,29.80
2022-08-03T13:23:39.785Z,29.90
2022-08-03T13:26:20.479Z,30.00
2022-08-03T13:29:02.711Z,30.20
2022-08-03T13:31:53.208Z,30.20
2022-08-03T13:37:38.007Z,30.20
2022-08-03T13:42:54.938Z,30.10
2022-08-03T13:45:21.714Z,30.10
2022-08-03T13:48:06.502Z,30.10
2022-08-03T13:50:42.924Z,30.10
2022-08-03T13:53:11.194Z,30.20
2022-08-03T13:55:38.026Z,30.30
2022-08-03T13:58:07.565Z,30.40
2022-08-03T14:00:34.838Z,30.40
2022-08-03T14:03:24.990Z,30.40
2022-08-03T14:08:33.957Z,30.30
2022-08-03T14:11:13.335Z,30.20
2022-08-03T14:13:47.959Z,30.10
2022-08-03T14:16:26.381Z,30.10
2022-08-03T14:19:02.143Z,30.20
2022-08-03T14:21:44.559Z,30.10
2022-08-03T14:24:23.732Z,30.10
2022-08-03T14:27:05.927Z,30.00
2022-08-03T14:29:38.694Z,30.00
2022-08-03T14:32:11.621Z,30.00
2022-08-03T14:34:40.128Z,30.10
2022-08-03T14:37:07.184Z,30.10
2022-08-03T14:42:51.294Z,30.20
2022-08-03T14:45:30.302Z,30.30
2022-08-03T14:50:30.061Z,30.40
2022-08-03T14:50:50.193Z,30.40
2022-08-03T14:53:20.721Z,30.40
2022-08-03T14:55:55.927Z,30.30
2022-08-03T14:58:24.172Z,30.30
2022-08-03T15:00:52.681Z,30.30
2022-08-03T15:03:31.833Z,30.30
2022-08-03T15:06:01.732Z,30.30
2022-08-03T15:09:22.627Z,30.30
2022-08-03T15:11:48.236Z,30.40
2022-08-03T15:14:28.354Z,30.40
2022-08-03T15:17:01.923Z,30.30
2022-08-03T15:20:01.133Z,30.30
2022-08-03T15:22:34.702Z,30.10
2022-08-03T15:26:03.630Z,30.00
2022-08-03T15:28:03.425Z,29.90
2022-08-03T15:31:01.605Z,29.90
2022-08-03T15:33:43.243Z,30.00
2022-08-03T15:36:30.595Z,30.00
2022-08-03T15:38:57.419Z,30.10
2022-08-03T16:14:13.095Z,29.90
2022-08-03T16:19:20.579Z,29.80
2022-08-03T16:21:56.444Z,29.90
2022-08-03T16:24:31.142Z,29.90
2022-08-03T16:27:00.965Z,29.90
2022-08-03T16:32:52.909Z,30.10
2022-08-03T16:35:25.233Z,30.00
2022-08-03T16:37:56.442Z,30.00
2022-08-03T16:40:51.920Z,29.90
2022-08-03T16:46:01.531Z,29.70
2022-08-03T16:48:31.306Z,29.60
2022-08-03T16:50:58.019Z,29.60
2022-08-03T16:56:10.177Z,29.70
2022-08-03T16:58:41.344Z,29.60
2022-08-03T17:01:29.225Z,29.60
2022-08-03T17:04:04.604Z,29.60
2022-08-03T17:06:51.392Z,29.60
2022-08-03T17:09:18.306Z,29.40
2022-08-03T17:11:56.966Z,29.30
2022-08-03T17:14:23.692Z,29.20
2022-08-03T17:19:59.644Z,29.00
2022-08-03T17:22:41.942Z,28.90
2022-08-03T17:25:22.160Z,28.90
2022-08-03T17:28:48.359Z,28.90
2022-08-03T17:31:23.524Z,28.90
2022-08-03T17:34:14.488Z,28.80
2022-08-03T17:37:03.792Z,28.80
2022-08-03T17:49:01.913Z,28.70
2022-08-03T20:15:09.349Z,25.30
2022-08-03T20:18:27.859Z,25.20
2022-08-03T20:24:36.803Z,25.00
2022-08-03T20:27:18.385Z,25.00
2022-08-03T20:38:15.378Z,24.80
2022-08-03T20:44:25.752Z,24.70
2022-08-03T20:50:25.332Z,24.60
2022-08-03T20:53:15.294Z,24.60
2022-08-03T20:59:24.875Z,24.50
2022-08-03T21:02:19.741Z,24.50
2022-08-03T21:10:54.442Z,24.40
2022-08-03T21:14:03.358Z,24.30
2022-08-03T21:16:45.502Z,24.30
2022-08-03T21:19:22.232Z,24.30
2022-08-03T21:22:31.811Z,24.20
2022-08-03T21:28:27.549Z,24.30
2022-08-03T21:31:07.818Z,24.30
2022-08-03T21:33:41.315Z,24.20
2022-08-03T21:36:17.632Z,24.10
2022-08-03T21:38:47.555Z,24.00
2022-08-03T21:41:27.667Z,23.90
2022-08-03T21:44:01.634Z,23.90
2022-08-03T21:46:53.463Z,23.90
2022-08-03T21:50:05.504Z,23.90
2022-08-03T22:01:55.414Z,23.90
2022-08-03T22:04:55.177Z,23.90
2022-08-03T22:07:53.216Z,23.90
2022-08-03T22:10:24.816Z,23.90
2022-08-03T22:13:13.294Z,23.90
2022-08-03T22:15:53.040Z,23.90
2022-08-03T22:18:56.646Z,23.90
2022-08-03T22:24:31.911Z,23.80
2022-08-03T22:27:23.073Z,23.80
2022-08-03T22:36:00.471Z,23.70
2022-08-03T22:38:36.143Z,23.70
2022-08-03T22:43:55.700Z,23.70
2022-08-03T22:46:28.341Z,23.60
2022-08-03T22:52:02.841Z,23.60
2022-08-03T23:16:28.737Z,23.20
2022-08-03T23:22:29.529Z,23.20
2022-08-03T23:28:36.331Z,23.10
2022-08-03T23:31:08.293Z,23.10
2022-08-03T23:33:43.299Z,23.10
2022-08-03T23:36:30.736Z,23.00
2022-08-03T23:39:00.806Z,23.00
2022-08-03T23:41:32.013Z,23.00
2022-08-03T23:44:12.496Z,22.90
2022-08-03T23:46:53.330Z,22.90
2022-08-03T23:59:32.666Z,22.70
